Portada
METAR-TAF:

METAR-TAF

Aeroports :

Port Hope, Michigan, Estats Units d'Amèrica

latitud: 44-01-19N, longitud: 082-47-35W, altitud: 179 m

Observació

L'informe es va fer fa 28 minuts, a les 05:51 UTC
Vent 9 kt del Oest/Sud-Oest amb ràfegues de 21 kt
Temperatura 6°C
Humitat 81%
Pressió 1005 hPa

METAR: KP58 300551Z AUTO 24009G21KT 06/03 A2967 RMK AO1 SLP049 P0001 60005 T00610033 10072 20061 52006

Hora: 02:19 (06:19 UTC)


TAF: manca

Observacions i pronòstics meteorològics de més de 4000 aeroports (METAR i TAF).

Les estacions disponibles són els punts grocs i vermells al mapa.

Posi el ratolí al punt desitjat per veure el nom de l'estació.

Feu clic per veure les observacions i els pronòstics meteorològics.

Per canviar el mapa: feu clic els botons verds amb una creu de color negre per apropar; al botó verd amb un guió per allunyar la imatge; o en les fletxes verdes per a mapes adjacents.


METAR-TAF: